Terminal Aerodrome Forecast
Issued by NWS

Home | Current Version | Previous Version | Text Only | Print | Product List | Glossary On
Versions: 1 2 3 4 5 6 7 8 9 10 11 12 13 14 15 16
000
FTAK31 PANC 302041 AAA
TAFAHO
TAF AMD
PAHO 302041Z 3021/0118 02020G30KT P6SM -RA BKN035 OVC045
     FM010000 04011KT P6SM -SHRA SCT025 OVC035
     FM010300 07006KT P6SM -SHRA SCT025 OVC035=

USA.gov is the U.S. government's official web portal to all federal, state and local government web resources and services.